Time;durP1;ratioP1;P1;durP2;ratioP2;P2;SDS_P1;SDS_P2;PMS_P1;PMS_P2;Temp;Humidity;BMP_temperature;BMP_pressure;BME280_temperature;BME280_humidity;BME280_pressure;Samples;Min_cycle;Max_cycle;Signal;HPM_P1;HPM_P2
2023/10/22 00:00:52;;;;;;;1.20;1.10;;;22.20;43.50;;;;;;5013307;28;20334;-54
2023/10/22 00:03:18;;;;;;;1.58;1.08;;;22.20;43.50;;;;;;5010997;28;20208;-54
2023/10/22 00:05:45;;;;;;;1.35;1.23;;;22.20;43.50;;;;;;5012044;28;20203;-57
2023/10/22 00:08:11;;;;;;;1.13;1.13;;;22.20;43.50;;;;;;5013653;28;20660;-58
2023/10/22 00:10:38;;;;;;;1.00;1.00;;;22.20;43.40;;;;;;5013048;28;20227;-62
2023/10/22 00:13:04;;;;;;;1.33;1.02;;;22.20;43.40;;;;;;5011227;28;20210;-56
2023/10/22 00:15:30;;;;;;;1.20;1.10;;;22.20;43.40;;;;;;5011066;28;20214;-57
2023/10/22 00:17:57;;;;;;;1.33;1.30;;;22.10;43.30;;;;;;5013724;28;20227;-52
2023/10/22 00:20:23;;;;;;;2.72;1.63;;;22.20;43.40;;;;;;5010016;28;20228;-50
2023/10/22 00:22:50;;;;;;;1.67;1.17;;;22.20;43.40;;;;;;5014046;28;20241;-54
2023/10/22 00:25:16;;;;;;;1.10;1.05;;;22.20;43.60;;;;;;5011559;28;20209;-49
2023/10/22 00:27:43;;;;;;;1.25;1.15;;;22.20;43.40;;;;;;5014106;28;20584;-53
2023/10/22 00:30:09;;;;;;;1.25;1.15;;;22.20;43.40;;;;;;5009395;28;20700;-63
2023/10/22 00:32:35;;;;;;;1.25;1.15;;;22.20;43.40;;;;;;5012628;28;20218;-53
2023/10/22 00:35:02;;;;;;;1.98;1.65;;;22.20;43.40;;;;;;5012036;28;20204;-51
2023/10/22 00:37:29;;;;;;;1.25;1.15;;;22.20;43.40;;;;;;5009592;28;20211;-53
2023/10/22 00:39:55;;;;;;;1.25;1.15;;;22.20;43.40;;;;;;5012459;28;20238;-49
2023/10/22 00:42:22;;;;;;;1.75;1.20;;;22.20;43.40;;;;;;5013567;28;20246;-53
2023/10/22 00:44:49;;;;;;;1.77;1.08;;;22.20;43.40;;;;;;5012082;28;20660;-51
2023/10/22 00:47:16;;;;;;;1.35;1.10;;;22.20;43.40;;;;;;5008834;28;20210;-51
2023/10/22 00:49:42;;;;;;;1.20;1.10;;;22.20;43.40;;;;;;5009890;28;20774;-52
2023/10/22 00:52:08;;;;;;;1.02;1.00;;;22.20;43.40;;;;;;5012632;28;20648;-52
2023/10/22 00:54:35;;;;;;;1.25;1.15;;;22.20;43.40;;;;;;5009661;28;20199;-51
2023/10/22 00:57:02;;;;;;;1.20;1.10;;;22.20;43.40;;;;;;5013024;28;20291;-51
2023/10/22 00:59:28;;;;;;;2.95;1.40;;;22.20;43.40;;;;;;5009939;28;20719;-52
2023/10/22 01:01:55;;;;;;;1.45;1.20;;;22.20;43.40;;;;;;5011378;28;20229;-53
2023/10/22 01:04:21;;;;;;;1.08;0.90;;;22.10;43.30;;;;;;5013179;28;20217;-50
2023/10/22 01:06:47;;;;;;;0.90;0.90;;;22.10;43.30;;;;;;5009551;28;20203;-56
2023/10/22 01:09:16;;;;;;;1.20;1.10;;;22.20;43.40;;;;;;5010969;28;20215;-49
2023/10/22 01:11:42;;;;;;;1.13;0.90;;;22.20;43.40;;;;;;5008078;28;20211;-53
2023/10/22 01:14:08;;;;;;;1.20;1.10;;;22.20;43.40;;;;;;5012619;28;20617;-49
2023/10/22 01:16:35;;;;;;;1.17;1.08;;;22.10;43.30;;;;;;5012105;28;20666;-53
2023/10/22 01:19:01;;;;;;;1.70;1.30;;;22.10;43.40;;;;;;5010599;28;20234;-52
2023/10/22 01:21:29;;;;;;;1.13;1.00;;;22.10;43.40;;;;;;5011739;28;20231;-51
2023/10/22 01:23:55;;;;;;;1.52;0.90;;;22.10;43.40;;;;;;5009566;28;20207;-53
2023/10/22 01:26:22;;;;;;;1.00;1.00;;;22.10;43.40;;;;;;5008286;28;20207;-53
2023/10/22 01:28:48;;;;;;;1.08;0.98;;;22.10;43.40;;;;;;5008451;28;20223;-51
2023/10/22 01:31:16;;;;;;;1.65;1.10;;;22.10;43.40;;;;;;5009751;28;20218;-55
2023/10/22 01:33:42;;;;;;;1.90;1.15;;;22.10;44.10;;;;;;5012599;28;20229;-51
2023/10/22 01:36:09;;;;;;;1.23;1.00;;;22.10;43.40;;;;;;5011148;28;20222;-55
2023/10/22 01:38:35;;;;;;;1.45;1.35;;;22.10;43.40;;;;;;5011573;28;20306;-51
2023/10/22 01:41:02;;;;;;;1.30;1.08;;;22.10;43.40;;;;;;5007003;28;20199;-49
2023/10/22 01:43:28;;;;;;;1.27;1.00;;;22.10;43.40;;;;;;5011913;28;20203;-50
2023/10/22 01:45:55;;;;;;;1.60;1.00;;;22.10;43.40;;;;;;5008109;28;20223;-56
2023/10/22 01:48:21;;;;;;;3.45;0.90;;;22.20;43.50;;;;;;5010469;28;20209;-48
2023/10/22 01:50:48;;;;;;;0.82;0.80;;;22.20;43.50;;;;;;5010762;28;20226;-50
2023/10/22 01:53:14;;;;;;;1.88;1.10;;;22.20;43.50;;;;;;5011732;28;20294;-53
2023/10/22 01:55:40;;;;;;;1.33;1.10;;;22.10;43.40;;;;;;5011709;28;20207;-57
2023/10/22 01:58:07;;;;;;;1.17;0.90;;;22.20;43.60;;;;;;5008958;28;20225;-50
2023/10/22 02:00:33;;;;;;;1.00;0.90;;;22.10;43.50;;;;;;5008549;28;20219;-52
2023/10/22 02:03:00;;;;;;;2.75;1.00;;;22.10;43.40;;;;;;5007392;28;20265;-49
2023/10/22 02:05:26;;;;;;;0.93;0.93;;;22.10;43.40;;;;;;5011823;28;20214;-49
2023/10/22 02:07:53;;;;;;;1.90;1.08;;;22.10;43.40;;;;;;5012114;28;20207;-51
2023/10/22 02:10:20;;;;;;;1.02;0.93;;;22.10;43.40;;;;;;5011827;28;20235;-58
2023/10/22 02:12:46;;;;;;;0.95;0.95;;;22.10;43.40;;;;;;5009886;28;20215;-49
2023/10/22 02:15:13;;;;;;;1.10;1.10;;;22.10;44.00;;;;;;5007561;28;20290;-54
2023/10/22 02:17:39;;;;;;;1.08;1.00;;;22.10;43.50;;;;;;5008224;28;20210;-54
2023/10/22 02:20:08;;;;;;;1.02;0.88;;;22.10;43.60;;;;;;5008075;28;20241;-55
2023/10/22 02:22:35;;;;;;;0.88;0.88;;;22.10;43.80;;;;;;5009981;28;20300;-51
2023/10/22 02:25:01;;;;;;;1.20;1.10;;;22.10;44.00;;;;;;5011883;28;20582;-48
2023/10/22 02:27:28;;;;;;;2.00;1.17;;;22.10;44.00;;;;;;5011411;28;20290;-52
2023/10/22 02:29:54;;;;;;;0.90;0.90;;;22.10;43.90;;;;;;5011035;28;20517;-49
2023/10/22 02:32:20;;;;;;;1.38;1.23;;;22.10;43.90;;;;;;5008522;28;20665;-50
2023/10/22 02:34:47;;;;;;;1.63;1.00;;;22.10;43.90;;;;;;5008002;28;20195;-53
2023/10/22 02:37:13;;;;;;;1.85;1.20;;;22.10;44.00;;;;;;5007576;28;20235;-52
2023/10/22 02:39:40;;;;;;;1.33;1.02;;;22.10;44.00;;;;;;5002859;28;20227;-51
2023/10/22 02:42:07;;;;;;;1.00;0.95;;;22.10;44.00;;;;;;5010805;28;20238;-50
2023/10/22 02:44:34;;;;;;;3.20;1.10;;;22.10;43.90;;;;;;5010780;28;20207;-46
2023/10/22 02:47:01;;;;;;;1.00;1.00;;;22.10;44.00;;;;;;5011006;28;20203;-45
2023/10/22 02:49:27;;;;;;;1.15;1.00;;;22.10;43.90;;;;;;5008984;28;20223;-46
2023/10/22 02:51:53;;;;;;;1.38;1.08;;;22.10;44.10;;;;;;5010942;28;20207;-58
2023/10/22 02:54:20;;;;;;;1.42;1.02;;;22.10;44.00;;;;;;5007679;28;20207;-54
2023/10/22 02:56:46;;;;;;;1.45;1.10;;;22.10;44.00;;;;;;5009080;28;20660;-47
2023/10/22 02:59:13;;;;;;;2.83;1.00;;;22.10;44.00;;;;;;5010323;28;20285;-58
2023/10/22 03:01:39;;;;;;;1.88;1.13;;;22.10;44.00;;;;;;5007695;28;20227;-52
2023/10/22 03:04:06;;;;;;;1.10;1.00;;;22.10;44.00;;;;;;5011584;28;20594;-51
2023/10/22 03:06:32;;;;;;;1.15;1.02;;;22.10;44.00;;;;;;5010268;28;20581;-56
2023/10/22 03:08:58;;;;;;;2.60;1.20;;;22.10;44.00;;;;;;5009274;28;20683;-49
2023/10/22 03:11:25;;;;;;;1.13;0.88;;;22.10;44.00;;;;;;5009464;28;20203;-50
2023/10/22 03:13:51;;;;;;;2.95;1.17;;;22.10;44.10;;;;;;5011369;28;20302;-48
2023/10/22 03:16:18;;;;;;;0.80;0.80;;;22.10;44.00;;;;;;5006615;28;20203;-51
2023/10/22 03:18:45;;;;;;;0.93;0.93;;;22.10;44.00;;;;;;5009129;28;20591;-52
2023/10/22 03:21:11;;;;;;;2.10;1.08;;;22.10;44.00;;;;;;5009466;28;20211;-49
2023/10/22 03:23:40;;;;;;;4.53;1.20;;;22.10;44.00;;;;;;5010984;28;20235;-47
2023/10/22 03:26:07;;;;;;;1.58;1.20;;;22.10;44.20;;;;;;5010790;28;20234;-47
2023/10/22 03:28:34;;;;;;;2.85;0.90;;;22.10;44.20;;;;;;5007971;28;20227;-51
2023/10/22 03:31:03;;;;;;;1.23;1.00;;;22.10;44.20;;;;;;5006535;28;20227;-49
2023/10/22 03:33:29;;;;;;;1.08;0.88;;;22.10;44.10;;;;;;5005979;28;20951;-51
2023/10/22 03:35:56;;;;;;;2.95;1.10;;;22.10;44.10;;;;;;5005759;28;20207;-51
2023/10/22 03:38:23;;;;;;;1.73;0.98;;;22.10;44.20;;;;;;5010522;28;20243;-51
2023/10/22 03:40:49;;;;;;;2.38;1.75;;;22.10;44.40;;;;;;5009910;28;20222;-51
2023/10/22 03:43:15;;;;;;;1.20;1.10;;;22.10;44.20;;;;;;5010630;28;20242;-53
2023/10/22 03:45:42;;;;;;;1.63;0.80;;;22.10;44.40;;;;;;5005504;28;20206;-51
2023/10/22 03:48:08;;;;;;;2.78;1.13;;;22.10;44.20;;;;;;5012489;28;20293;-54
2023/10/22 03:50:35;;;;;;;1.25;0.93;;;22.10;44.30;;;;;;5012463;28;20240;-49
2023/10/22 03:53:01;;;;;;;2.75;1.10;;;22.10;44.40;;;;;;5012734;28;20206;-49
2023/10/22 03:55:28;;;;;;;1.05;0.95;;;22.10;44.30;;;;;;5011866;28;20572;-50
2023/10/22 03:57:54;;;;;;;2.70;1.25;;;22.10;44.40;;;;;;5014453;28;20286;-50
2023/10/22 04:00:21;;;;;;;1.70;1.00;;;22.10;44.50;;;;;;5011992;28;20676;-52
2023/10/22 04:02:47;;;;;;;1.48;1.00;;;22.10;44.20;;;;;;5006893;28;20300;-50
2023/10/22 04:05:14;;;;;;;1.13;0.90;;;22.10;44.30;;;;;;5006773;28;20207;-51
2023/10/22 04:07:40;;;;;;;2.65;1.13;;;22.10;44.30;;;;;;5005805;28;20207;-52
2023/10/22 04:10:09;;;;;;;1.58;1.10;;;22.10;44.40;;;;;;5012345;28;20219;-58
2023/10/22 04:12:36;;;;;;;2.40;1.10;;;22.10;44.30;;;;;;5014375;28;20234;-48
2023/10/22 04:15:02;;;;;;;1.98;1.42;;;22.10;44.30;;;;;;5013318;28;20294;-51
2023/10/22 04:17:29;;;;;;;1.63;1.10;;;22.10;44.30;;;;;;5011615;28;20213;-50
2023/10/22 04:19:55;;;;;;;2.53;1.00;;;22.10;44.30;;;;;;5010107;28;20226;-54
2023/10/22 04:22:22;;;;;;;1.52;1.00;;;22.10;44.40;;;;;;5013961;28;20234;-52
2023/10/22 04:24:48;;;;;;;1.25;0.90;;;22.10;44.30;;;;;;5012492;28;20212;-48
2023/10/22 04:27:15;;;;;;;2.35;1.10;;;22.10;44.50;;;;;;5010921;28;20203;-49
2023/10/22 04:29:43;;;;;;;1.27;0.95;;;22.10;44.20;;;;;;5012446;28;20227;-59
2023/10/22 04:32:10;;;;;;;1.60;1.13;;;22.10;44.20;;;;;;5012507;28;20262;-51
2023/10/22 04:34:37;;;;;;;1.58;1.00;;;22.10;44.30;;;;;;5010645;28;20687;-49
2023/10/22 04:37:04;;;;;;;1.20;1.10;;;22.10;44.30;;;;;;5009578;28;20195;-57
2023/10/22 04:39:30;;;;;;;1.25;0.90;;;22.10;44.30;;;;;;5013127;28;20322;-57
2023/10/22 04:41:57;;;;;;;1.13;1.02;;;22.10;44.30;;;;;;5009264;28;20200;-57
2023/10/22 04:44:23;;;;;;;1.60;1.00;;;22.10;44.20;;;;;;5011810;28;20199;-55
2023/10/22 04:46:49;;;;;;;0.90;0.90;;;22.10;44.00;;;;;;5010835;28;20680;-47
2023/10/22 04:49:16;;;;;;;1.30;1.00;;;22.10;43.70;;;;;;5012580;28;20229;-51
2023/10/22 04:51:42;;;;;;;1.65;0.90;;;22.10;43.80;;;;;;5013423;28;20209;-52
2023/10/22 04:54:09;;;;;;;1.88;1.05;;;22.10;43.80;;;;;;5012466;28;20218;-50
2023/10/22 04:56:35;;;;;;;1.73;0.90;;;22.10;43.90;;;;;;5012058;28;20205;-48
2023/10/22 04:59:02;;;;;;;0.88;0.88;;;22.10;43.80;;;;;;5008547;28;20227;-51
2023/10/22 05:01:28;;;;;;;2.80;1.05;;;22.10;43.80;;;;;;5009511;28;20207;-53
2023/10/22 05:03:54;;;;;;;1.27;1.15;;;22.10;43.70;;;;;;5013391;28;20238;-51
2023/10/22 05:06:21;;;;;;;1.23;1.13;;;22.10;43.60;;;;;;5012436;28;20199;-53
2023/10/22 05:08:47;;;;;;;1.00;0.90;;;22.10;43.70;;;;;;5009213;28;20585;-52
2023/10/22 05:11:14;;;;;;;1.48;0.90;;;22.10;43.60;;;;;;5008756;28;20571;-52
2023/10/22 05:13:40;;;;;;;2.10;1.38;;;22.10;43.60;;;;;;5008549;28;20581;-50
2023/10/22 05:16:09;;;;;;;2.05;0.88;;;22.10;43.60;;;;;;5005809;28;23093;-51
2023/10/22 05:18:36;;;;;;;0.93;0.90;;;22.10;43.60;;;;;;5010938;28;20225;-51
2023/10/22 05:21:04;;;;;;;1.23;0.88;;;22.10;44.30;;;;;;5010691;28;20203;-50
2023/10/22 05:23:31;;;;;;;1.00;0.90;;;22.10;43.60;;;;;;5012717;28;20300;-50
2023/10/22 05:25:57;;;;;;;1.27;0.90;;;22.10;43.60;;;;;;5010039;28;20213;-49
2023/10/22 05:28:23;;;;;;;0.85;0.85;;;22.10;43.40;;;;;;5008771;28;20223;-49
2023/10/22 05:30:50;;;;;;;1.00;1.00;;;22.10;43.40;;;;;;5010928;28;20199;-54
2023/10/22 05:33:16;;;;;;;1.88;1.10;;;22.10;43.30;;;;;;5009107;28;20542;-49
2023/10/22 05:35:43;;;;;;;1.23;0.90;;;22.10;43.40;;;;;;5008533;28;20210;-54
2023/10/22 05:38:09;;;;;;;1.10;1.00;;;22.10;43.50;;;;;;5012462;28;20241;-51
2023/10/22 05:40:36;;;;;;;1.00;1.00;;;22.10;43.40;;;;;;5011607;28;20210;-49
2023/10/22 05:43:02;;;;;;;1.25;0.90;;;22.10;43.40;;;;;;5008752;28;20702;-50
2023/10/22 05:45:29;;;;;;;1.27;1.00;;;22.10;43.30;;;;;;5007911;28;20637;-51
2023/10/22 05:47:55;;;;;;;0.85;0.85;;;22.10;43.20;;;;;;5010986;28;20723;-52
2023/10/22 05:50:21;;;;;;;1.38;1.20;;;22.10;43.20;;;;;;5011089;28;20202;-50
2023/10/22 05:52:50;;;;;;;1.25;0.90;;;22.10;43.20;;;;;;5010125;28;20214;-53
2023/10/22 05:55:16;;;;;;;1.33;0.90;;;22.10;43.10;;;;;;5011747;28;20241;-52
2023/10/22 05:57:43;;;;;;;1.08;0.90;;;22.10;43.10;;;;;;5008040;28;20245;-48
2023/10/22 06:00:09;;;;;;;1.48;1.08;;;22.10;43.10;;;;;;5005463;28;20209;-49
2023/10/22 06:02:35;;;;;;;0.93;0.93;;;22.10;43.20;;;;;;5002892;28;20591;-48
2023/10/22 06:05:02;;;;;;;0.90;0.90;;;22.10;43.20;;;;;;5002315;28;20663;-48
2023/10/22 06:07:29;;;;;;;1.40;0.90;;;22.10;43.10;;;;;;5009251;28;20199;-48
2023/10/22 06:09:55;;;;;;;0.90;0.90;;;22.10;43.30;;;;;;4999368;28;20214;-51
2023/10/22 06:12:21;;;;;;;3.00;1.23;;;22.10;43.30;;;;;;5004518;28;20304;-46
2023/10/22 06:14:48;;;;;;;0.93;0.93;;;22.10;43.50;;;;;;5007193;28;20572;-49
2023/10/22 06:17:14;;;;;;;3.95;1.30;;;22.10;43.50;;;;;;5007231;28;20250;-49
2023/10/22 06:19:41;;;;;;;2.20;1.20;;;22.10;43.90;;;;;;5011322;28;20576;-55
2023/10/22 06:22:07;;;;;;;4.07;1.20;;;22.10;44.20;;;;;;5004865;28;20671;-51
2023/10/22 06:24:34;;;;;;;1.40;1.10;;;22.10;44.20;;;;;;5012061;28;20199;-50
2023/10/22 06:27:01;;;;;;;3.28;1.20;;;22.10;44.20;;;;;;5009192;28;20211;-48
2023/10/22 06:29:27;;;;;;;3.00;1.10;;;22.10;44.10;;;;;;5007170;28;20221;-47
2023/10/22 06:31:54;;;;;;;2.08;1.15;;;22.10;44.10;;;;;;5004644;28;20223;-56
2023/10/22 06:34:20;;;;;;;3.67;1.10;;;22.10;44.00;;;;;;5008427;28;20207;-47
2023/10/22 06:36:47;;;;;;;4.88;1.25;;;22.10;43.90;;;;;;5010774;28;20290;-44
2023/10/22 06:39:13;;;;;;;3.42;1.25;;;22.10;43.60;;;;;;5010043;28;20247;-50
2023/10/22 06:41:40;;;;;;;6.07;1.90;;;22.10;43.60;;;;;;5010257;28;20203;-47
2023/10/22 06:44:06;;;;;;;1.73;1.10;;;22.10;43.60;;;;;;5011132;28;20249;-49
2023/10/22 06:46:33;;;;;;;6.30;1.00;;;22.00;43.20;;;;;;5011397;28;20565;-51
2023/10/22 06:48:59;;;;;;;6.05;1.05;;;22.10;43.50;;;;;;5010631;28;20639;-47
2023/10/22 06:51:25;;;;;;;4.85;1.20;;;22.00;43.70;;;;;;5007364;28;20261;-48
2023/10/22 06:53:52;;;;;;;8.05;1.42;;;22.00;43.90;;;;;;5000919;28;20195;-44
2023/10/22 06:56:18;;;;;;;6.07;1.67;;;21.90;44.00;;;;;;5009345;28;20217;-49
2023/10/22 06:58:45;;;;;;;3.97;1.48;;;21.90;44.10;;;;;;5009171;28;20215;-51
2023/10/22 07:01:12;;;;;;;3.92;1.65;;;21.90;43.90;;;;;;5011319;28;20663;-48
2023/10/22 07:03:38;;;;;;;2.60;1.45;;;21.90;43.80;;;;;;5011243;28;20245;-43
2023/10/22 07:06:05;;;;;;;2.60;1.55;;;21.70;41.70;;;;;;5009216;28;20207;-43
2023/10/22 07:08:31;;;;;;;1.45;1.13;;;20.70;43.10;;;;;;5007718;28;20222;-43
2023/10/22 07:10:58;;;;;;;2.67;1.40;;;21.00;43.00;;;;;;5007797;28;20208;-43
2023/10/22 07:13:24;;;;;;;4.45;1.50;;;21.30;43.50;;;;;;5008749;28;20210;-43
2023/10/22 07:15:51;;;;;;;3.67;1.80;;;21.50;44.70;;;;;;5010987;28;20214;-44
2023/10/22 07:18:17;;;;;;;2.40;1.67;;;21.60;44.70;;;;;;5009170;28;20310;-44
2023/10/22 07:20:44;;;;;;;4.03;1.30;;;21.80;44.70;;;;;;5010329;28;20218;-43
2023/10/22 07:23:11;;;;;;;3.25;1.75;;;21.80;44.50;;;;;;5013483;28;20255;-43
2023/10/22 07:25:37;;;;;;;3.42;1.40;;;21.80;44.30;;;;;;5006997;28;20201;-44
2023/10/22 07:28:04;;;;;;;3.40;1.30;;;21.80;44.20;;;;;;5013533;28;20587;-41
2023/10/22 07:30:31;;;;;;;4.47;1.58;;;21.90;44.20;;;;;;5010603;28;20508;-43
2023/10/22 07:32:57;;;;;;;2.08;1.33;;;21.90;44.10;;;;;;5007989;28;20214;-43
2023/10/22 07:35:24;;;;;;;3.15;1.80;;;21.90;44.10;;;;;;5005669;28;22362;-44
2023/10/22 07:37:50;;;;;;;3.13;1.48;;;21.90;44.10;;;;;;5004856;28;20261;-42
2023/10/22 07:40:17;;;;;;;2.45;1.45;;;21.90;45.30;;;;;;5012945;28;20210;-44
2023/10/22 07:42:44;;;;;;;1.17;1.02;;;21.90;44.90;;;;;;5012971;28;20195;-44
2023/10/22 07:45:10;;;;;;;2.53;1.30;;;21.80;44.50;;;;;;5020799;28;20203;-45
2023/10/22 07:47:37;;;;;;;2.55;1.17;;;21.90;44.40;;;;;;5014210;28;20231;-43
2023/10/22 07:50:03;;;;;;;2.30;1.33;;;21.90;44.40;;;;;;5013127;28;20195;-44
2023/10/22 07:52:30;;;;;;;1.40;1.08;;;21.90;45.40;;;;;;5014194;28;20293;-44
2023/10/22 07:54:56;;;;;;;1.95;1.23;;;21.90;45.10;;;;;;5015273;28;20580;-45
2023/10/22 07:57:23;;;;;;;2.42;1.20;;;21.90;45.10;;;;;;5015450;28;20227;-46
2023/10/22 07:59:49;;;;;;;1.75;1.25;;;21.90;44.50;;;;;;5010193;28;20685;-48
2023/10/22 08:02:16;;;;;;;1.45;1.05;;;21.90;44.70;;;;;;5009388;28;20644;-47
2023/10/22 08:04:42;;;;;;;3.53;1.20;;;21.90;45.20;;;;;;5013820;28;20219;-45
2023/10/22 08:07:09;;;;;;;2.13;1.20;;;21.80;44.70;;;;;;5014299;28;20461;-41
2023/10/22 08:09:35;;;;;;;2.47;1.42;;;21.90;44.50;;;;;;5012387;28;20199;-41
2023/10/22 08:12:01;;;;;;;3.45;1.02;;;21.80;44.80;;;;;;5013064;28;20561;-41
2023/10/22 08:14:28;;;;;;;2.08;1.02;;;21.80;44.40;;;;;;5014094;28;20535;-40
2023/10/22 08:16:54;;;;;;;1.25;1.08;;;21.80;44.20;;;;;;5008680;28;20726;-41
2023/10/22 08:19:21;;;;;;;4.70;1.58;;;21.80;44.10;;;;;;5003410;28;20203;-42
2023/10/22 08:21:47;;;;;;;1.50;1.00;;;21.90;44.10;;;;;;5018912;28;20195;-42
2023/10/22 08:24:14;;;;;;;2.03;1.00;;;21.90;43.90;;;;;;5013805;28;20273;-42
2023/10/22 08:26:40;;;;;;;3.42;1.20;;;21.90;45.00;;;;;;5014240;28;20207;-42
2023/10/22 08:29:08;;;;;;;2.22;0.98;;;21.90;44.50;;;;;;5016025;28;20220;-37
2023/10/22 08:31:34;;;;;;;1.40;1.20;;;21.90;44.20;;;;;;5015204;28;20591;-40
2023/10/22 08:34:00;;;;;;;2.25;0.90;;;22.00;44.60;;;;;;5009445;28;20659;-38
2023/10/22 08:36:27;;;;;;;1.52;1.00;;;22.00;44.40;;;;;;5013426;28;20209;-38
2023/10/22 08:38:53;;;;;;;1.40;1.20;;;22.00;44.70;;;;;;5013063;28;20222;-38
2023/10/22 08:41:20;;;;;;;2.92;1.08;;;22.00;44.50;;;;;;5015756;28;20213;-40
2023/10/22 08:43:46;;;;;;;1.10;1.00;;;22.10;44.40;;;;;;5016771;28;20888;-39
2023/10/22 08:46:13;;;;;;;2.45;1.20;;;22.10;44.20;;;;;;5013738;28;20206;-38
2023/10/22 08:48:39;;;;;;;1.27;1.00;;;22.10;44.30;;;;;;5008672;28;20229;-38
2023/10/22 08:51:06;;;;;;;1.25;1.00;;;22.10;44.30;;;;;;5010963;28;20207;-38
2023/10/22 08:53:32;;;;;;;0.90;0.90;;;22.10;44.50;;;;;;5012426;28;20215;-42
2023/10/22 08:55:59;;;;;;;1.58;0.93;;;22.10;44.40;;;;;;5019650;28;20198;-43
2023/10/22 08:58:25;;;;;;;1.75;1.00;;;22.10;44.30;;;;;;5010459;28;20226;-42
2023/10/22 09:00:52;;;;;;;1.65;1.10;;;22.20;44.30;;;;;;5006595;28;20656;-44
2023/10/22 09:03:18;;;;;;;1.38;1.20;;;22.10;44.20;;;;;;5011712;28;20299;-44
2023/10/22 09:05:45;;;;;;;1.20;1.10;;;22.20;44.40;;;;;;5016368;28;20265;-43
2023/10/22 09:08:11;;;;;;;1.52;1.05;;;22.20;44.20;;;;;;5013155;28;20231;-44
2023/10/22 09:10:38;;;;;;;1.35;0.95;;;22.20;44.30;;;;;;5005916;28;20209;-44
2023/10/22 09:13:04;;;;;;;1.08;1.00;;;22.20;44.80;;;;;;5011893;28;20203;-45
2023/10/22 09:15:30;;;;;;;1.30;1.02;;;22.20;44.30;;;;;;5012262;28;20207;-44
2023/10/22 09:17:57;;;;;;;1.30;0.98;;;22.20;44.20;;;;;;5010620;28;20529;-44
2023/10/22 09:20:23;;;;;;;2.45;1.00;;;22.20;44.20;;;;;;5008143;28;20578;-44
2023/10/22 09:22:50;;;;;;;2.65;1.60;;;22.30;44.60;;;;;;5006677;28;20678;-44
2023/10/22 09:25:18;;;;;;;2.05;1.13;;;22.30;44.80;;;;;;5006283;28;20237;-46
2023/10/22 09:27:45;;;;;;;1.67;1.20;;;22.30;44.60;;;;;;5008189;28;20249;-41
2023/10/22 09:30:11;;;;;;;1.30;1.02;;;22.30;45.00;;;;;;5011477;28;20602;-40
2023/10/22 09:32:38;;;;;;;1.35;1.25;;;22.30;44.80;;;;;;5007995;28;20203;-39
2023/10/22 09:35:04;;;;;;;1.80;1.00;;;22.30;45.10;;;;;;5010818;28;20203;-39
2023/10/22 09:37:31;;;;;;;1.30;1.10;;;22.30;45.00;;;;;;5012484;28;20242;-40
2023/10/22 09:39:57;;;;;;;2.45;1.15;;;22.30;45.10;;;;;;5004063;28;20211;-49
2023/10/22 09:42:24;;;;;;;1.40;1.00;;;22.40;45.40;;;;;;5002115;28;20207;-43
2023/10/22 09:44:50;;;;;;;0.85;0.82;;;22.40;45.20;;;;;;5008240;28;20256;-44
2023/10/22 09:47:17;;;;;;;1.52;1.02;;;22.40;45.50;;;;;;5012020;28;20225;-45
2023/10/22 09:49:43;;;;;;;2.38;1.05;;;22.40;45.50;;;;;;5011861;28;20200;-44
2023/10/22 09:52:09;;;;;;;3.90;0.90;;;22.40;45.30;;;;;;5003088;28;20205;-40
2023/10/22 09:54:37;;;;;;;1.60;1.08;;;22.40;45.30;;;;;;5007661;28;20203;-46
2023/10/22 09:57:04;;;;;;;2.53;1.15;;;22.30;45.20;;;;;;5011971;28;20227;-42
2023/10/22 09:59:30;;;;;;;1.45;1.30;;;22.30;45.40;;;;;;5002868;28;20211;-41
2023/10/22 10:01:57;;;;;;;2.35;1.25;;;22.30;45.50;;;;;;5008393;28;20202;-43
2023/10/22 10:04:24;;;;;;;1.48;0.98;;;22.30;45.30;;;;;;5010183;28;20238;-40
2023/10/22 10:06:50;;;;;;;1.30;1.20;;;22.30;45.30;;;;;;5009585;28;20635;-43
2023/10/22 10:09:17;;;;;;;1.15;1.05;;;22.30;45.20;;;;;;5009925;28;20199;-43
2023/10/22 10:11:43;;;;;;;1.35;1.02;;;22.30;45.30;;;;;;5008039;28;20667;-40
2023/10/22 10:14:09;;;;;;;1.48;1.30;;;22.30;45.20;;;;;;5005720;28;20652;-41
2023/10/22 10:16:36;;;;;;;1.63;0.98;;;22.20;45.20;;;;;;5007048;28;20235;-45
2023/10/22 10:19:02;;;;;;;1.40;1.10;;;22.30;45.30;;;;;;5011678;28;20211;-42
2023/10/22 10:21:29;;;;;;;1.63;1.38;;;22.20;45.20;;;;;;5008677;28;20222;-42
2023/10/22 10:23:55;;;;;;;1.80;1.40;;;22.20;45.20;;;;;;5008264;28;20222;-43
2023/10/22 10:26:22;;;;;;;2.58;1.30;;;22.30;45.20;;;;;;5008130;28;20234;-42
2023/10/22 10:28:50;;;;;;;1.27;1.10;;;22.20;45.00;;;;;;5011283;28;20213;-41
2023/10/22 10:31:16;;;;;;;1.45;1.00;;;22.20;45.00;;;;;;5010853;28;20199;-41
2023/10/22 10:33:43;;;;;;;2.45;1.25;;;22.20;45.00;;;;;;5008540;28;20589;-42
2023/10/22 10:36:09;;;;;;;2.45;1.30;;;22.20;45.00;;;;;;5010618;28;20300;-41
2023/10/22 10:38:36;;;;;;;2.58;1.10;;;22.30;45.10;;;;;;5008751;28;21072;-41
2023/10/22 10:41:02;;;;;;;1.40;1.25;;;22.20;44.90;;;;;;5009456;28;20646;-43
2023/10/22 10:43:28;;;;;;;1.30;1.20;;;22.20;45.00;;;;;;5011459;28;20207;-42
2023/10/22 10:45:54;;;;;;;1.17;1.00;;;22.20;44.90;;;;;;5009573;28;20245;-42
2023/10/22 10:48:21;;;;;;;1.83;1.40;;;22.20;44.70;;;;;;5011236;28;20659;-42
2023/10/22 10:50:48;;;;;;;1.77;1.20;;;22.20;44.70;;;;;;5005923;28;20199;-40
2023/10/22 10:53:15;;;;;;;1.75;1.27;;;22.20;44.60;;;;;;5009277;28;20195;-43
2023/10/22 10:55:42;;;;;;;1.23;1.10;;;22.30;44.60;;;;;;5011438;28;20421;-43
2023/10/22 10:58:08;;;;;;;1.42;1.33;;;22.30;44.50;;;;;;5015294;28;20229;-42
2023/10/22 11:00:35;;;;;;;1.67;1.10;;;22.30;45.10;;;;;;5013694;28;20199;-42
2023/10/22 11:03:02;;;;;;;1.45;1.10;;;22.30;44.40;;;;;;5015146;28;20273;-41
2023/10/22 11:05:29;;;;;;;1.30;1.20;;;22.30;44.90;;;;;;5013169;28;20226;-43
2023/10/22 11:07:55;;;;;;;2.30;1.20;;;22.30;44.10;;;;;;5009660;28;20218;-44
2023/10/22 11:10:21;;;;;;;2.33;1.63;;;22.30;44.20;;;;;;5013391;28;20229;-41
2023/10/22 11:12:49;;;;;;;1.50;1.08;;;22.30;44.70;;;;;;5012095;28;20569;-43
2023/10/22 11:15:16;;;;;;;1.52;1.20;;;22.30;44.10;;;;;;5012440;28;20757;-44
2023/10/22 11:17:42;;;;;;;2.03;1.45;;;22.30;44.30;;;;;;5013729;28;20234;-43
2023/10/22 11:20:09;;;;;;;1.40;1.30;;;22.30;44.10;;;;;;5014220;28;20210;-43
2023/10/22 11:22:36;;;;;;;1.40;1.15;;;22.30;44.00;;;;;;5015256;28;20203;-45
2023/10/22 11:25:02;;;;;;;1.23;1.10;;;22.30;44.00;;;;;;5013071;28;20698;-43
2023/10/22 11:27:29;;;;;;;1.50;1.08;;;22.30;44.00;;;;;;5012839;28;20230;-43
2023/10/22 11:29:55;;;;;;;1.48;1.00;;;22.30;44.10;;;;;;5013303;28;20564;-43
2023/10/22 11:32:22;;;;;;;1.35;0.90;;;22.30;44.70;;;;;;5012538;28;20734;-42
2023/10/22 11:34:48;;;;;;;1.35;1.20;;;22.30;44.00;;;;;;5009591;28;20208;-43
2023/10/22 11:37:15;;;;;;;1.10;1.00;;;22.30;44.00;;;;;;5013129;28;20223;-43
2023/10/22 11:39:42;;;;;;;2.47;1.00;;;22.30;44.00;;;;;;5015466;28;20207;-43
2023/10/22 11:42:10;;;;;;;1.50;1.17;;;22.30;43.90;;;;;;5013745;28;20299;-42
2023/10/22 11:44:37;;;;;;;1.55;1.10;;;22.30;43.90;;;;;;5012701;28;20231;-43
2023/10/22 11:47:03;;;;;;;1.25;1.05;;;22.30;43.80;;;;;;5012719;28;20223;-42
2023/10/22 11:49:30;;;;;;;1.23;1.13;;;22.20;43.80;;;;;;5011011;28;20263;-45
2023/10/22 11:51:56;;;;;;;1.38;1.25;;;22.20;43.70;;;;;;5014432;28;20206;-43
2023/10/22 11:54:23;;;;;;;1.35;1.13;;;22.30;43.80;;;;;;5014916;28;20207;-44
2023/10/22 11:56:49;;;;;;;1.20;1.08;;;22.20;43.70;;;;;;5012791;28;20223;-46
2023/10/22 11:59:15;;;;;;;1.48;1.20;;;22.20;43.70;;;;;;5013998;28;20663;-43
2023/10/22 12:01:42;;;;;;;1.10;1.00;;;22.20;43.70;;;;;;5013971;28;20213;-44
2023/10/22 12:04:09;;;;;;;2.30;1.50;;;22.20;43.80;;;;;;5013010;28;20329;-43
2023/10/22 12:06:35;;;;;;;1.60;1.10;;;22.20;43.70;;;;;;5011306;28;20699;-45
2023/10/22 12:09:03;;;;;;;1.67;1.10;;;22.20;43.70;;;;;;5011708;28;20199;-43
2023/10/22 12:11:30;;;;;;;1.48;1.15;;;22.20;43.70;;;;;;5011714;28;20535;-43
2023/10/22 12:13:56;;;;;;;1.45;1.20;;;22.20;43.70;;;;;;5012740;28;20203;-44
2023/10/22 12:16:22;;;;;;;1.30;1.20;;;22.20;43.60;;;;;;5012447;28;20266;-43
2023/10/22 12:18:49;;;;;;;1.40;1.30;;;22.20;43.60;;;;;;5013887;28;20210;-45
2023/10/22 12:21:16;;;;;;;2.25;1.50;;;22.20;43.60;;;;;;5014675;28;20562;-49
2023/10/22 12:23:42;;;;;;;1.20;0.98;;;22.30;43.60;;;;;;5014368;28;20654;-45
2023/10/22 12:26:08;;;;;;;1.42;1.30;;;22.20;43.60;;;;;;5012892;28;20221;-46
2023/10/22 12:28:35;;;;;;;1.58;1.10;;;22.30;43.70;;;;;;5012313;28;20207;-43
2023/10/22 12:31:01;;;;;;;1.25;1.00;;;22.20;43.60;;;;;;5011368;28;20205;-45
2023/10/22 12:33:28;;;;;;;1.60;1.27;;;22.30;43.70;;;;;;5011914;28;20218;-35
2023/10/22 12:35:54;;;;;;;7.75;3.78;;;22.20;43.70;;;;;;5019452;28;20219;-35
2023/10/22 12:38:21;;;;;;;8.02;4.15;;;22.30;43.80;;;;;;5014408;28;20199;-34
2023/10/22 12:40:47;;;;;;;10.30;5.32;;;22.30;44.90;;;;;;5016595;28;20206;-34
2023/10/22 12:43:13;;;;;;;14.85;6.78;;;22.30;45.60;;;;;;5020825;28;20202;-34